Time;durP1;ratioP1;P1;durP2;ratioP2;P2;SDS_P1;SDS_P2;PMS_P1;PMS_P2;Temp;Humidity;BMP_temperature;BMP_pressure;BME280_temperature;BME280_humidity;BME280_pressure;Samples;Min_cycle;Max_cycle;Signal;HPM_P1;HPM_P2
2021/01/22 00:00:51;;;;;;;50.37;26.23;;;;;;;1.35;73.32;100635.56;121730;1141;104380;-78
2021/01/22 00:03:20;;;;;;;43.63;24.17;;;;;;;1.31;73.29;100629.28;121321;1141;104466;-77
2021/01/22 00:05:50;;;;;;;49.90;25.07;;;;;;;1.25;72.74;100642.63;121699;1141;104374;-77
2021/01/22 00:08:19;;;;;;;51.03;27.17;;;;;;;1.19;73.13;100639.59;121392;1141;104453;-79
2021/01/22 00:10:48;;;;;;;53.70;29.73;;;;;;;1.15;72.97;100652.16;121667;1141;104377;-78
2021/01/22 00:13:17;;;;;;;58.83;31.57;;;;;;;1.09;73.32;100647.42;121698;1140;104365;-78
2021/01/22 00:15:46;;;;;;;52.00;28.53;;;;;;;1.05;72.94;100643.71;121699;1141;104354;-78
2021/01/22 00:18:15;;;;;;;56.60;29.30;;;;;;;1.02;73.07;100647.75;121709;1141;104950;-78
2021/01/22 00:20:44;;;;;;;49.13;26.30;;;;;;;0.98;73.03;100644.05;121345;1141;104344;-77
2021/01/22 00:23:13;;;;;;;50.60;27.20;;;;;;;0.99;73.27;100643.24;121690;1141;104342;-78
2021/01/22 00:25:42;;;;;;;53.00;28.83;;;;;;;1.01;73.22;100646.87;121346;1141;104408;-77
2021/01/22 00:28:11;;;;;;;56.73;30.73;;;;;;;1.04;73.31;100646.18;121713;1141;104371;-78
2021/01/22 00:30:40;;;;;;;55.10;30.07;;;;;;;1.04;73.15;100638.42;121315;1141;104351;-77
2021/01/22 00:33:09;;;;;;;66.67;33.87;;;;;;;1.00;73.60;100639.00;121720;1141;104441;-78
2021/01/22 00:35:38;;;;;;;59.85;34.15;;;;;;;0.97;73.50;100649.10;121332;1143;104473;-78
2021/01/22 00:38:07;;;;;;;65.40;33.70;;;;;;;0.97;73.41;100639.66;121339;1144;104358;-78
2021/01/22 00:40:36;;;;;;;57.00;30.87;;;;;;;0.96;73.32;100645.59;121353;1144;104492;-78
2021/01/22 00:43:05;;;;;;;56.97;32.57;;;;;;;0.95;73.53;100638.65;121374;1143;104505;-78
2021/01/22 00:45:35;;;;;;;67.55;32.80;;;;;;;0.97;73.29;100643.94;121348;1144;104636;-78
2021/01/22 00:48:05;;;;;;;65.03;35.63;;;;;;;0.96;73.63;100640.42;121329;1144;104970;-78
2021/01/22 00:50:34;;;;;;;69.53;37.57;;;;;;;0.95;73.34;100643.81;121372;1143;104393;-78
2021/01/22 00:53:03;;;;;;;67.00;35.20;;;;;;;0.91;73.48;100640.88;121355;1144;104393;-79
2021/01/22 00:55:34;;;;;;;64.05;36.15;;;;;;;0.89;73.49;100639.06;121389;1143;104504;-78
2021/01/22 00:58:22;;;;;;;62.13;35.03;;;;;;;0.88;73.46;100636.37;121368;1144;104898;-78
2021/01/22 01:00:53;;;;;;;55.27;31.63;;;;;;;0.89;73.61;100630.42;121309;1143;104364;-78
2021/01/22 01:03:27;;;;;;;60.23;34.40;;;;;;;0.89;73.54;100628.73;121362;1143;104636;-78
2021/01/22 01:05:56;;;;;;;58.10;33.10;;;;;;;0.91;73.80;100626.27;121356;1143;104361;-78
2021/01/22 01:08:25;;;;;;;63.45;35.85;;;;;;;0.92;73.67;100620.33;121720;1141;104401;-78
2021/01/22 01:11:08;;;;;;;63.15;34.15;;;;;;;0.92;73.81;100616.82;121715;1141;104439;-78
2021/01/22 01:13:47;;;;;;;59.43;33.00;;;;;;;0.94;73.96;100612.69;121304;1141;104467;-78
2021/01/22 01:16:24;;;;;;;54.60;30.27;;;;;;;0.93;73.76;100603.13;121704;1141;104448;-78
2021/01/22 01:18:53;;;;;;;55.13;30.53;;;;;;;0.99;73.70;100613.93;121719;1141;104338;-78
2021/01/22 01:21:22;;;;;;;56.00;29.67;;;;;;;1.03;73.81;100608.22;121739;1141;104530;-78
2021/01/22 01:23:51;;;;;;;59.30;30.80;;;;;;;1.06;73.96;100605.84;121683;1141;105091;-78
2021/01/22 01:26:21;;;;;;;56.00;30.67;;;;;;;1.07;74.00;100598.20;121692;1141;104403;-78
2021/01/22 01:28:50;;;;;;;54.03;29.77;;;;;;;1.07;73.99;100605.95;121696;1141;104357;-78
2021/01/22 01:31:20;;;;;;;56.73;31.73;;;;;;;1.07;74.01;100599.89;121277;1141;104406;-76
2021/01/22 01:33:49;;;;;;;50.83;29.00;;;;;;;1.07;73.89;100593.03;121658;1141;104343;-76
2021/01/22 01:36:17;;;;;;;49.55;26.80;;;;;;;1.08;73.86;100597.42;121650;1141;104345;-75
2021/01/22 01:38:46;;;;;;;47.87;27.13;;;;;;;1.07;74.00;100595.61;121333;1141;104377;-76
2021/01/22 01:41:15;;;;;;;50.60;27.47;;;;;;;1.08;73.53;100581.92;121751;1141;104361;-77
2021/01/22 01:43:44;;;;;;;55.80;29.60;;;;;;;1.08;74.00;100587.09;121314;1141;104473;-77
2021/01/22 01:46:13;;;;;;;51.30;28.45;;;;;;;1.08;74.16;100581.92;121725;1141;104372;-76
2021/01/22 01:48:42;;;;;;;55.35;29.80;;;;;;;1.08;73.88;100584.50;121689;1141;104464;-77
2021/01/22 01:51:12;;;;;;;55.27;29.47;;;;;;;1.07;73.91;100574.05;121643;1141;104385;-77
2021/01/22 01:53:41;;;;;;;49.50;27.77;;;;;;;1.08;74.04;100575.86;121322;1141;104438;-76
2021/01/22 01:56:10;;;;;;;50.87;26.70;;;;;;;1.09;73.87;100577.63;121717;1141;104342;-77
2021/01/22 01:58:39;;;;;;;51.83;28.03;;;;;;;1.10;73.86;100569.11;121731;1141;104338;-77
2021/01/22 02:01:10;;;;;;;45.10;24.17;;;;;;;1.09;73.76;100564.72;121697;1141;104339;-77
2021/01/22 02:03:39;;;;;;;49.33;26.60;;;;;;;1.03;73.46;100572.05;121407;1141;104401;-77
2021/01/22 02:06:08;;;;;;;52.20;27.73;;;;;;;1.02;73.85;100575.40;121720;1141;104555;-78
2021/01/22 02:08:40;;;;;;;52.40;27.90;;;;;;;1.04;74.22;100571.23;121704;1141;104372;-77
2021/01/22 02:11:11;;;;;;;50.50;27.80;;;;;;;1.04;73.98;100566.98;121366;1141;104339;-77
2021/01/22 02:13:42;;;;;;;48.45;28.15;;;;;;;1.05;73.72;100571.34;121695;1141;104342;-77
2021/01/22 02:16:12;;;;;;;50.03;27.37;;;;;;;1.08;73.79;100568.11;121317;1141;104388;-77
2021/01/22 02:18:46;;;;;;;55.10;29.77;;;;;;;1.06;73.96;100570.58;121728;1141;104372;-78
2021/01/22 02:21:23;;;;;;;;;;;;;;;1.01;74.00;100571.92;121390;1141;104372;-77
2021/01/22 02:23:56;;;;;;;55.83;30.23;;;;;;;0.97;74.24;100567.30;121699;1141;104407;-77
2021/01/22 02:26:44;;;;;;;54.73;29.40;;;;;;;0.91;73.93;100569.42;121335;1141;104466;-78
2021/01/22 02:29:15;;;;;;;52.03;27.77;;;;;;;0.87;73.87;100575.13;121682;1141;104420;-77
2021/01/22 02:31:46;;;;;;;50.87;27.93;;;;;;;0.86;73.99;100575.94;121393;1141;104338;-77
2021/01/22 02:34:21;;;;;;;56.73;29.77;;;;;;;0.86;73.56;100575.94;121704;1141;104351;-77
2021/01/22 02:36:51;;;;;;;54.57;29.77;;;;;;;0.84;73.94;100569.73;121355;1141;104331;-77
2021/01/22 02:39:24;;;;;;;54.57;29.20;;;;;;;0.82;74.17;100569.62;121708;1141;104479;-77
2021/01/22 02:41:56;;;;;;;52.77;28.63;;;;;;;0.82;73.92;100571.31;121336;1141;104358;-77
2021/01/22 02:44:26;;;;;;;48.70;26.93;;;;;;;0.83;73.98;100574.02;121732;1141;104831;-77
2021/01/22 02:46:56;;;;;;;53.80;26.77;;;;;;;0.85;74.13;100569.85;121390;1141;104344;-78
2021/01/22 02:49:25;;;;;;;49.70;27.63;;;;;;;0.86;74.12;100563.02;121732;1141;104410;-76
2021/01/22 02:51:57;;;;;;;47.53;27.10;;;;;;;0.88;74.28;100576.95;121735;1141;104400;-78
2021/01/22 02:54:27;;;;;;;50.00;28.17;;;;;;;0.88;74.02;100569.19;121336;1141;104394;-77
2021/01/22 02:57:11;;;;;;;50.50;29.17;;;;;;;0.86;73.97;100566.49;121723;1141;104356;-76
2021/01/22 02:59:56;;;;;;;50.57;27.67;;;;;;;0.87;74.10;100564.80;121363;1141;104331;-77
2021/01/22 03:02:28;;;;;;;;;;;;;;;0.87;74.53;100563.14;121758;1141;104520;-77
2021/01/22 03:04:57;;;;;;;54.40;28.97;;;;;;;0.86;73.93;100573.36;121734;1141;104345;-77
2021/01/22 03:07:34;;;;;;;57.27;31.67;;;;;;;0.85;73.96;100572.44;121687;1141;104470;-77
2021/01/22 03:10:04;;;;;;;59.43;32.07;;;;;;;0.82;73.98;100569.62;121725;1141;104341;-76
2021/01/22 03:12:34;;;;;;;57.20;30.77;;;;;;;0.79;73.91;100571.08;121714;1141;104760;-77
2021/01/22 03:15:04;;;;;;;60.20;31.95;;;;;;;0.75;74.08;100576.78;121359;1141;104391;-77
2021/01/22 03:17:34;;;;;;;56.53;29.57;;;;;;;0.74;74.03;100575.90;121712;1141;104385;-77
2021/01/22 03:20:03;;;;;;;52.83;29.00;;;;;;;0.76;74.05;100569.16;121328;1141;104457;-77
2021/01/22 03:22:32;;;;;;;60.75;31.85;;;;;;;0.75;73.94;100580.30;121738;1141;104469;-77
2021/01/22 03:25:01;;;;;;;54.93;31.40;;;;;;;0.70;74.02;100579.02;121656;1141;104355;-77
2021/01/22 03:27:31;;;;;;;56.27;31.03;;;;;;;0.63;73.94;100581.94;121689;1141;104439;-77
2021/01/22 03:30:00;;;;;;;60.10;31.80;;;;;;;0.55;74.29;100583.93;121656;1141;104356;-77
2021/01/22 03:32:33;;;;;;;52.50;29.57;;;;;;;0.51;74.09;100581.88;121630;1141;104835;-78
2021/01/22 03:35:03;;;;;;;51.08;28.27;;;;;;;0.53;74.12;100580.31;121414;1141;104381;-78
2021/01/22 03:37:32;;;;;;;54.60;29.57;;;;;;;0.57;74.19;100577.19;121671;1141;104354;-77
2021/01/22 03:40:01;;;;;;;53.90;30.00;;;;;;;0.52;74.02;100570.78;121316;1141;104348;-78
2021/01/22 03:42:30;;;;;;;56.03;28.63;;;;;;;0.47;74.10;100572.13;121716;1140;104361;-78
2021/01/22 03:44:59;;;;;;;56.83;31.20;;;;;;;0.43;74.12;100572.66;121330;1141;104338;-77
2021/01/22 03:47:27;;;;;;;50.37;27.93;;;;;;;0.43;73.99;100572.66;121748;1141;104805;-78
2021/01/22 03:49:56;;;;;;;50.40;28.47;;;;;;;0.45;73.93;100572.00;121360;1141;104582;-77
2021/01/22 03:52:25;;;;;;;49.77;28.53;;;;;;;0.43;73.99;100581.29;121702;1140;104344;-77
2021/01/22 03:54:54;;;;;;;50.90;29.13;;;;;;;0.39;74.39;100579.28;121354;1141;104505;-77
2021/01/22 03:57:23;;;;;;;58.07;30.50;;;;;;;0.38;74.52;100576.58;121704;1141;104344;-77
2021/01/22 03:59:52;;;;;;;57.73;30.73;;;;;;;0.39;74.29;100580.94;121370;1141;104442;-78
2021/01/22 04:02:21;;;;;;;51.57;27.57;;;;;;;0.39;74.48;100565.44;121704;1141;104466;-79
2021/01/22 04:04:51;;;;;;;45.70;25.90;;;;;;;0.42;74.74;100571.77;121704;1141;104423;-80
2021/01/22 04:07:23;;;;;;;55.20;29.67;;;;;;;0.46;74.32;100567.73;121680;1140;104367;-79
2021/01/22 04:09:53;;;;;;;51.40;28.70;;;;;;;0.50;74.31;100580.11;121317;1141;104338;-81
2021/01/22 04:12:26;;;;;;;53.53;29.63;;;;;;;0.51;74.17;100569.89;121389;1143;104932;-79
2021/01/22 04:15:00;;;;;;;54.97;29.03;;;;;;;0.48;74.14;100576.48;121346;1144;104356;-80
2021/01/22 04:17:30;;;;;;;50.67;27.30;;;;;;;0.41;74.58;100575.12;121376;1144;105112;-78
2021/01/22 04:20:00;;;;;;;48.75;26.75;;;;;;;0.39;73.96;100562.86;121408;1143;104537;-79
2021/01/22 04:22:30;;;;;;;46.93;26.03;;;;;;;0.38;73.79;100579.16;121318;1144;104560;-78
2021/01/22 04:24:59;;;;;;;53.17;28.17;;;;;;;0.29;74.14;100574.17;121361;1142;104543;-78
2021/01/22 04:27:31;;;;;;;51.23;28.20;;;;;;;0.30;74.37;100573.40;121357;1144;104371;-78
2021/01/22 04:30:04;;;;;;;49.40;27.03;;;;;;;0.31;74.21;100573.52;121292;1143;104398;-78
2021/01/22 04:32:34;;;;;;;46.07;25.47;;;;;;;0.34;74.75;100576.34;121383;1144;104533;-78
2021/01/22 04:35:04;;;;;;;47.93;24.87;;;;;;;0.39;74.09;100573.19;121320;1144;104354;-78
2021/01/22 04:37:34;;;;;;;50.57;26.07;;;;;;;0.40;74.12;100565.56;121373;1143;104455;-77
2021/01/22 04:40:05;;;;;;;44.43;24.10;;;;;;;0.39;74.03;100580.94;121352;1143;104692;-78
2021/01/22 04:42:34;;;;;;;51.07;27.93;;;;;;;0.39;74.17;100575.77;121319;1143;104531;-77
2021/01/22 04:45:06;;;;;;;41.57;23.50;;;;;;;0.41;74.68;100569.95;121663;1141;104495;-78
2021/01/22 04:47:35;;;;;;;44.33;25.13;;;;;;;0.45;74.17;100563.34;121438;1141;104387;-77
2021/01/22 04:50:07;;;;;;;48.00;26.40;;;;;;;0.46;74.78;100571.20;121479;1141;104498;-79
2021/01/22 04:52:37;;;;;;;46.47;24.07;;;;;;;0.42;74.54;100570.84;121762;1141;104353;-79
2021/01/22 04:55:11;;;;;;;50.13;25.50;;;;;;;0.35;74.77;100575.53;121315;1141;104430;-77
2021/01/22 04:57:42;;;;;;;47.67;25.20;;;;;;;0.39;74.75;100566.37;121516;1141;104364;-78
2021/01/22 05:00:13;;;;;;;43.50;24.47;;;;;;;0.42;74.33;100565.68;121502;1141;104392;-76
2021/01/22 05:02:43;;;;;;;49.23;25.00;;;;;;;0.41;74.22;100558.73;121594;1141;104352;-77
2021/01/22 05:05:13;;;;;;;46.13;24.60;;;;;;;0.42;74.18;100566.61;121557;1141;104436;-77
2021/01/22 05:07:42;;;;;;;45.43;24.50;;;;;;;0.42;74.67;100560.52;121241;1141;104369;-77
2021/01/22 05:10:12;;;;;;;45.27;24.20;;;;;;;0.43;74.43;100552.89;121510;1141;104455;-76
2021/01/22 05:12:42;;;;;;;42.93;24.80;;;;;;;0.44;74.42;100561.56;121622;1141;104345;-76
2021/01/22 05:15:21;;;;;;;45.17;22.57;;;;;;;0.43;74.48;100558.05;121233;1141;104381;-76
2021/01/22 05:18:01;;;;;;;47.37;25.53;;;;;;;0.38;74.28;100568.83;121668;1141;104355;-76
2021/01/22 05:20:34;;;;;;;51.80;26.57;;;;;;;0.33;74.14;100566.78;121388;1141;104345;-76
2021/01/22 05:23:05;;;;;;;48.83;25.47;;;;;;;0.33;74.16;100571.05;121694;1141;104895;-76
2021/01/22 05:25:54;;;;;;;46.93;25.07;;;;;;;0.33;74.32;100561.62;121305;1141;104345;-76
2021/01/22 05:28:32;;;;;;;47.80;24.67;;;;;;;0.38;74.68;100558.50;121444;1141;104426;-78
2021/01/22 05:31:02;;;;;;;47.00;25.00;;;;;;;0.38;74.18;100564.55;121809;1141;104339;-77
2021/01/22 05:33:32;;;;;;;45.00;26.87;;;;;;;0.38;74.52;100568.83;121363;1141;104455;-77
2021/01/22 05:36:22;;;;;;;42.80;23.33;;;;;;;0.38;74.69;100568.83;121382;1141;104355;-76
2021/01/22 05:38:51;;;;;;;49.03;25.70;;;;;;;0.37;74.66;100561.86;121384;1141;104375;-77
2021/01/22 05:41:20;;;;;;;45.00;25.07;;;;;;;0.41;74.52;100566.48;121623;1141;104353;-77
2021/01/22 05:43:51;;;;;;;46.67;24.77;;;;;;;0.40;74.24;100562.98;121201;1141;104350;-77
2021/01/22 05:46:22;;;;;;;46.10;24.97;;;;;;;0.41;74.87;100569.06;121525;1141;104459;-77
2021/01/22 05:49:07;;;;;;;48.33;25.07;;;;;;;0.43;74.69;100559.75;121268;1141;104458;-76
2021/01/22 05:51:36;;;;;;;49.70;26.20;;;;;;;0.45;74.56;100561.68;121318;1141;104587;-75
2021/01/22 05:54:06;;;;;;;45.40;24.20;;;;;;;0.53;75.15;100562.23;121159;1141;104439;-76
2021/01/22 05:56:35;;;;;;;44.00;24.10;;;;;;;0.59;74.77;100562.70;121580;1141;104375;-77
2021/01/22 05:59:15;;;;;;;48.97;25.70;;;;;;;0.66;74.97;100556.34;121485;1141;104407;-77
2021/01/22 06:01:45;;;;;;;47.57;26.07;;;;;;;0.69;74.96;100562.63;121250;1141;104451;-76
2021/01/22 06:04:14;;;;;;;49.47;27.23;;;;;;;0.72;74.81;100567.14;121458;1141;104446;-76
2021/01/22 06:06:43;;;;;;;50.60;26.73;;;;;;;0.75;74.86;100558.70;121102;1141;104449;-76
2021/01/22 06:09:12;;;;;;;58.30;27.60;;;;;;;0.81;74.53;100561.75;121438;1141;104407;-78
2021/01/22 06:11:46;;;;;;;44.87;24.13;;;;;;;0.84;74.90;100556.81;121136;1141;104550;-78
2021/01/22 06:14:15;;;;;;;50.00;25.83;;;;;;;0.89;74.58;100552.92;121026;1141;104399;-78
2021/01/22 06:16:48;;;;;;;51.70;27.97;;;;;;;0.92;74.48;100559.98;121269;1141;104375;-76
2021/01/22 06:19:21;;;;;;;56.33;28.57;;;;;;;0.94;74.63;100558.44;121277;1141;104368;-78
2021/01/22 06:21:58;;;;;;;;;;;;;;;0.99;74.67;100554.50;123342;1141;101809;-79
2021/01/22 06:24:28;;;;;;;55.20;27.47;;;;;;;1.03;74.62;100562.59;122464;1144;102129;-77
2021/01/22 06:26:58;;;;;;;52.30;27.80;;;;;;;1.11;74.96;100560.58;122428;1141;104410;-77
2021/01/22 06:29:30;;;;;;;51.50;27.67;;;;;;;1.24;74.84;100557.20;121449;1141;104342;-77
2021/01/22 06:32:01;;;;;;;54.80;29.70;;;;;;;1.34;74.24;100553.60;121325;1141;104380;-80
2021/01/22 06:34:33;;;;;;;54.13;30.20;;;;;;;1.41;74.68;100550.69;121207;1141;104466;-78
2021/01/22 06:37:05;;;;;;;52.33;28.53;;;;;;;1.48;74.64;100549.44;120979;1141;104475;-78
2021/01/22 06:39:36;;;;;;;56.37;30.10;;;;;;;1.57;74.59;100548.45;120977;1141;104520;-77
2021/01/22 06:42:09;;;;;;;53.43;29.07;;;;;;;1.67;74.59;100547.41;120928;1141;104438;-78
2021/01/22 06:44:40;;;;;;;53.63;29.90;;;;;;;1.75;74.25;100546.27;121945;1141;104359;-78
2021/01/22 06:47:13;;;;;;;58.37;31.60;;;;;;;1.89;74.67;100544.66;120954;1141;104371;-80
2021/01/22 06:49:42;;;;;;;58.53;32.27;;;;;;;2.07;74.81;100545.07;121374;1141;104619;-79
2021/01/22 06:52:16;;;;;;;53.57;31.77;;;;;;;2.19;74.35;100542.42;121099;1141;104601;-79
2021/01/22 06:55:06;;;;;;;59.37;32.97;;;;;;;2.27;74.39;100548.14;120927;1141;104416;-79
2021/01/22 06:57:37;;;;;;;55.53;30.43;;;;;;;2.37;73.82;100549.66;121310;1141;104409;-79
2021/01/22 07:00:38;;;;;;;61.87;34.17;;;;;;;2.45;74.50;100543.34;120937;1143;104431;-79
2021/01/22 07:03:07;;;;;;;52.17;27.83;;;;;;;2.54;74.18;100540.47;120989;1141;104422;-81
2021/01/22 07:05:37;;;;;;;50.63;27.70;;;;;;;2.59;74.23;100544.30;121354;1141;104464;-82
2021/01/22 07:08:14;;;;;;;57.10;29.73;;;;;;;2.64;74.23;100538.61;121356;1141;104366;-79
2021/01/22 07:11:06;;;;;;;56.60;31.73;;;;;;;2.69;74.45;100544.99;121309;1141;104394;-81
2021/01/22 07:13:39;;;;;;;60.20;32.13;;;;;;;2.77;74.48;100544.63;121040;1141;104381;-78
2021/01/22 07:16:23;;;;;;;60.33;34.20;;;;;;;2.81;74.57;100537.16;122793;1140;102061;-82
2021/01/22 07:18:55;;;;;;;60.63;32.00;;;;;;;2.84;73.83;100534.77;121757;1140;103057;-82
2021/01/22 07:21:32;;;;;;;64.17;35.63;;;;;;;2.91;74.55;100533.48;121339;1141;104346;-82
2021/01/22 07:24:03;;;;;;;62.33;34.70;;;;;;;2.93;74.21;100538.77;120963;1141;104384;-81
2021/01/22 07:26:37;;;;;;;69.47;37.63;;;;;;;2.97;74.13;100533.89;121223;1141;104735;-79
2021/01/22 07:29:19;;;;;;;62.07;32.77;;;;;;;3.03;74.44;100543.78;121397;1141;104482;-81
2021/01/22 07:32:03;;;;;;;61.40;32.70;;;;;;;3.10;74.74;100548.59;121402;1141;104451;-83
2021/01/22 07:34:50;;;;;;;61.53;34.03;;;;;;;3.20;74.19;100540.60;121360;1141;105055;-82
2021/01/22 07:40:56;;;;;;;67.87;36.70;;;;;;;3.29;73.94;100545.50;120818;1144;103088;-83
2021/01/22 07:43:29;;;;;;;65.15;37.25;;;;;;;3.33;74.09;100538.81;121132;1140;102858;-82
2021/01/22 07:46:10;;;;;;;67.83;36.17;;;;;;;3.39;74.66;100541.80;121329;1141;104343;-83
2021/01/22 07:48:42;;;;;;;66.70;37.03;;;;;;;3.39;74.84;100544.40;120937;1141;104332;-79
2021/01/22 07:51:36;;;;;;;66.80;38.45;;;;;;;3.37;73.89;100533.92;121663;1141;104416;-83
2021/01/22 07:54:08;;;;;;;69.97;37.55;;;;;;;3.43;73.53;100541.22;122217;1139;103165;-83
2021/01/22 07:56:41;;;;;;;68.30;37.07;;;;;;;3.51;73.53;100537.41;121200;1141;104401;-83
2021/01/22 07:59:13;;;;;;;63.07;36.27;;;;;;;3.65;73.47;100540.89;121453;1141;104503;-83
2021/01/22 08:01:46;;;;;;;68.30;39.23;;;;;;;3.76;74.52;100539.88;121053;1141;104360;-84
2021/01/22 08:04:28;;;;;;;72.30;39.87;;;;;;;3.87;73.89;100543.15;121052;1141;104361;-83
2021/01/22 08:07:02;;;;;;;73.50;42.40;;;;;;;3.98;74.36;100529.95;121141;1141;104338;-84
2021/01/22 08:09:33;;;;;;;79.77;41.83;;;;;;;4.08;74.22;100527.11;121428;1141;104337;-82
2021/01/22 08:12:15;;;;;;;82.50;43.20;;;;;;;4.19;74.22;100526.09;121030;1141;104472;-83
2021/01/22 08:14:45;;;;;;;82.93;44.00;;;;;;;4.29;74.16;100531.03;121303;1141;104344;-84
2021/01/22 08:17:15;;;;;;;87.03;43.23;;;;;;;4.33;73.91;100526.91;121448;1141;104401;-84
2021/01/22 08:19:46;;;;;;;77.40;40.00;;;;;;;4.37;73.33;100517.63;121140;1141;104848;-82
2021/01/22 08:22:18;;;;;;;79.63;40.47;;;;;;;4.46;73.91;100526.88;121212;1141;104403;-80
2021/01/22 08:24:50;;;;;;;84.00;40.47;;;;;;;4.59;73.77;100518.10;121063;1141;104884;-82
2021/01/22 08:27:23;;;;;;;66.80;32.50;;;;;;;4.72;73.69;100518.83;121005;1141;104484;-80
2021/01/22 08:29:53;;;;;;;56.48;28.30;;;;;;;4.85;73.61;100526.56;121381;1141;104487;-80
2021/01/22 08:32:24;;;;;;;53.37;26.90;;;;;;;5.01;74.09;100524.03;121263;1141;104502;-78
2021/01/22 08:34:57;;;;;;;43.35;23.77;;;;;;;5.18;74.18;100519.81;121012;1144;104505;-79
2021/01/22 08:37:27;;;;;;;37.60;20.50;;;;;;;5.28;74.21;100516.02;120875;1143;104464;-79
2021/01/22 08:40:07;;;;;;;38.35;20.35;;;;;;;5.40;73.69;100511.52;121047;1143;104508;-80
2021/01/22 08:42:38;;;;;;;38.57;20.93;;;;;;;5.52;73.87;100507.84;121053;1143;104416;-82
2021/01/22 08:45:08;;;;;;;35.87;19.33;;;;;;;5.67;73.65;100502.57;121372;1142;104383;-81
2021/01/22 08:47:43;;;;;;;34.27;17.83;;;;;;;5.84;73.21;100511.31;121454;1144;103277;-81
2021/01/22 08:50:22;;;;;;;36.87;19.93;;;;;;;5.97;73.31;100500.80;121155;1143;104409;-80
2021/01/22 08:53:06;;;;;;;35.07;19.30;;;;;;;6.16;73.32;100488.77;121215;1143;104521;-79
2021/01/22 08:55:36;;;;;;;30.70;16.97;;;;;;;6.29;72.96;100492.10;121310;1143;104953;-78
2021/01/22 08:58:09;;;;;;;33.80;19.53;;;;;;;6.40;73.09;100495.23;120989;1144;104399;-80
2021/01/22 09:00:40;;;;;;;33.57;18.83;;;;;;;6.55;73.05;100502.09;120992;1145;104486;-77
2021/01/22 09:03:20;;;;;;;36.67;19.57;;;;;;;6.66;73.18;100504.42;121119;1142;104537;-80
2021/01/22 09:05:56;;;;;;;38.10;19.73;;;;;;;6.78;72.96;100492.84;121018;1141;104354;-83
2021/01/22 09:08:27;;;;;;;33.77;19.20;;;;;;;6.83;72.89;100486.14;121259;1141;104445;-82
2021/01/22 09:10:59;;;;;;;39.20;19.37;;;;;;;6.84;72.56;100475.78;121310;1141;104448;-81
2021/01/22 09:14:02;;;;;;;30.83;16.77;;;;;;;6.93;72.70;100466.62;120964;1141;104579;-84
2021/01/22 09:16:46;;;;;;;32.23;17.20;;;;;;;7.20;72.40;100469.70;122931;1141;103098;-83
2021/01/22 09:19:16;;;;;;;33.98;17.10;;;;;;;7.44;72.69;100461.27;122684;1141;102640;-84
2021/01/22 09:21:55;;;;;;;30.57;17.17;;;;;;;7.63;72.35;100463.02;121336;1141;104370;-84
2021/01/22 09:24:25;;;;;;;34.57;16.97;;;;;;;7.85;72.41;100460.59;121341;1141;104337;-85
2021/01/22 09:26:54;;;;;;;31.43;16.77;;;;;;;8.01;72.35;100448.20;121147;1141;104454;-84
2021/01/22 09:29:23;;;;;;;28.90;15.70;;;;;;;8.13;71.66;100455.70;121070;1141;104487;-82
2021/01/22 09:31:52;;;;;;;26.57;15.07;;;;;;;8.19;72.33;100451.64;121293;1141;104334;-81
2021/01/22 09:34:22;;;;;;;27.60;14.73;;;;;;;8.24;72.03;100457.98;121323;1141;104509;-83
2021/01/22 09:36:56;;;;;;;26.67;14.47;;;;;;;8.23;71.84;100450.95;121090;1141;104866;-83
2021/01/22 09:43:46;;;;;;;28.90;14.73;;;;;;;7.80;71.25;100441.17;122582;1147;103352;-81
2021/01/22 09:46:15;;;;;;;29.00;14.73;;;;;;;7.69;71.00;100437.19;121106;1141;104407;-81
2021/01/22 09:48:47;;;;;;;25.83;13.77;;;;;;;7.59;71.25;100441.09;121017;1143;104592;-83
2021/01/22 09:51:23;;;;;;;25.80;12.97;;;;;;;7.58;70.85;100438.41;121095;1144;104946;-80
2021/01/22 09:53:56;;;;;;;26.63;14.37;;;;;;;7.64;71.25;100439.58;121022;1143;104554;-79
2021/01/22 09:56:26;;;;;;;30.20;14.77;;;;;;;7.71;71.07;100439.06;120928;1144;104497;-83
2021/01/22 09:59:19;;;;;;;28.40;13.20;;;;;;;7.78;70.48;100435.00;120894;1144;104536;-80
2021/01/22 10:02:30;;;;;;;26.60;13.90;;;;;;;7.91;70.91;100434.71;120488;1145;104418;-81
2021/01/22 10:05:00;;;;;;;26.23;13.70;;;;;;;7.98;71.16;100427.16;120967;1144;104567;-83
2021/01/22 10:07:30;;;;;;;25.27;13.77;;;;;;;8.04;70.68;100427.42;121027;1141;104420;-80
2021/01/22 10:10:17;;;;;;;23.83;13.30;;;;;;;8.02;70.80;100424.75;121017;1141;104504;-82
2021/01/22 10:12:46;;;;;;;27.27;13.33;;;;;;;8.15;71.03;100434.05;121245;1141;104394;-83
2021/01/22 10:15:17;;;;;;;31.23;15.97;;;;;;;8.32;70.91;100421.72;121369;1141;104362;-83
2021/01/22 10:17:46;;;;;;;29.50;12.50;;;;;;;8.49;70.20;100426.80;121027;1141;104375;-81
2021/01/22 10:20:16;;;;;;;27.50;13.93;;;;;;;8.58;70.81;100430.69;120803;1143;103238;-84
2021/01/22 10:22:48;;;;;;;25.87;12.53;;;;;;;8.60;70.38;100420.30;120874;1143;104442;-84
2021/01/22 10:25:19;;;;;;;26.47;12.20;;;;;;;8.65;70.48;100421.41;120904;1143;104754;-82
2021/01/22 10:27:49;;;;;;;25.23;12.77;;;;;;;8.65;70.03;100418.80;121018;1143;104920;-82
2021/01/22 10:30:19;;;;;;;28.90;14.20;;;;;;;8.56;69.70;100419.28;120962;1143;104531;-83
2021/01/22 10:32:50;;;;;;;27.73;15.00;;;;;;;8.49;69.55;100413.72;120866;1144;104515;-85
2021/01/22 10:35:22;;;;;;;26.27;12.97;;;;;;;8.34;69.98;100401.76;120745;1143;104420;-82
2021/01/22 10:37:52;;;;;;;24.67;12.93;;;;;;;8.20;70.17;100395.93;120787;1144;104538;-80
2021/01/22 10:40:21;;;;;;;27.20;13.20;;;;;;;8.12;69.83;100385.95;120864;1144;104634;-82
2021/01/22 10:42:54;;;;;;;24.97;13.47;;;;;;;8.12;69.92;100380.73;121363;1144;104412;-84
2021/01/22 10:45:24;;;;;;;26.30;13.07;;;;;;;8.11;69.67;100379.84;120913;1144;104496;-81
2021/01/22 10:47:54;;;;;;;24.13;13.00;;;;;;;8.02;69.24;100375.09;121053;1144;104542;-80
2021/01/22 10:50:24;;;;;;;28.43;14.13;;;;;;;7.98;69.20;100373.20;120963;1144;104921;-80
2021/01/22 10:52:58;;;;;;;25.43;12.83;;;;;;;7.96;69.12;100366.98;121244;1141;104390;-79
2021/01/22 10:55:42;;;;;;;27.65;13.80;;;;;;;7.90;68.96;100369.36;121246;1141;104471;-79
2021/01/22 10:58:12;;;;;;;27.13;13.03;;;;;;;7.86;69.43;100363.09;120876;1141;104400;-81
2021/01/22 11:00:57;;;;;;;25.32;13.98;;;;;;;7.82;69.56;100361.18;121086;1141;104348;-81
2021/01/22 11:03:28;;;;;;;25.43;13.00;;;;;;;7.81;69.50;100351.55;120836;1141;104502;-81
2021/01/22 11:05:58;;;;;;;25.77;14.10;;;;;;;7.78;69.52;100350.53;120797;1141;104369;-80
2021/01/22 11:11:28;;;;;;;27.53;14.00;;;;;;;7.74;69.22;100342.55;120844;1141;104449;-84
2021/01/22 11:14:10;;;;;;;27.37;14.00;;;;;;;7.74;69.30;100347.78;121271;1140;104385;-81
2021/01/22 11:16:39;;;;;;;23.50;12.40;;;;;;;7.76;68.98;100340.02;120788;1141;104464;-82
2021/01/22 11:19:09;;;;;;;25.50;11.90;;;;;;;7.83;69.18;100333.33;121105;1141;104381;-83
2021/01/22 11:21:39;;;;;;;25.03;11.77;;;;;;;7.94;69.07;100328.58;121099;1141;104385;-82
2021/01/22 11:24:09;;;;;;;24.07;12.03;;;;;;;8.04;69.57;100325.52;120757;1141;104378;-81
2021/01/22 11:26:38;;;;;;;28.13;12.27;;;;;;;8.16;69.49;100319.93;121224;1141;104512;-83
2021/01/22 11:29:07;;;;;;;23.45;12.35;;;;;;;8.25;68.82;100305.52;120860;1143;104492;-80
2021/01/22 11:31:39;;;;;;;26.67;12.60;;;;;;;8.32;69.18;100295.31;121402;1140;104362;-81
2021/01/22 11:34:11;;;;;;;24.50;12.33;;;;;;;8.34;68.58;100293.68;121271;1141;104604;-81
2021/01/22 11:36:40;;;;;;;23.63;12.13;;;;;;;8.38;69.27;100290.34;121307;1139;104364;-80